»·PEaware :: AAL1954 KSFO-KPHX

AAL1954 :: KSFO-KPHX

FLIGHT INFORMATION

Flight Status: Arrived
Operator:
American Airlines
More flights by this operator :: More flights under this callsign
Pilot: Robert Y. (11885)
Aircraft: BOEING 737-300
(B733)
More flights by this aircraft type
Origin: KSFO San Francisco Intl
United States
Destination: KPHX Phoenix Sky Harbor Intl
United States
More flights between these airports :: More routes between these airports
Route: SSTIK3 LOSHN BOILE BLH HYDRR1
File this flight plan on PilotEdge
Remarks: AAL9314 Robert Yunque - aavirtual.net
Altitude:
(Current/Filed)
35,000ft
Speed:
(Current/Filed)
280kts
Departed: 01-Oct-17 06:18 PM
Arrived: 01-Oct-17 08:19 PM
Distance/Time
Traveled:
565nm/2:01
Distance/Time
To Go:
Arrived

Flight Plot

Page will automatically refresh every two minutes.


Map Options




Map Legend


Flown Route
Filed Route
Departure Airport
Arrival Airport
Navaid (VOR, NDB)
Fix

Horizontal Profiles

Position Reports

Time Latitude Longitude Heading Altitude Ground
Speed
01-Oct-17 17:59 37.614364 -122.382714 31 30ft 0kts
01-Oct-17 18:00 37.614364 -122.382714 31 30ft 0kts
01-Oct-17 18:01 37.614364 -122.382714 31 30ft 0kts
01-Oct-17 18:02 37.614364 -122.382714 31 30ft 0kts
01-Oct-17 18:03 37.614364 -122.382714 31 30ft 0kts
01-Oct-17 18:04 37.614364 -122.382714 31 30ft 0kts
01-Oct-17 18:05 37.614169 -122.382850 26 30ft 1kts
01-Oct-17 18:06 37.613897 -122.383033 51 30ft 0kts
01-Oct-17 18:07 37.613939 -122.383381 120 30ft 2kts
01-Oct-17 18:08 37.614001 -122.383537 117 30ft 0kts
01-Oct-17 18:09 37.614001 -122.383537 117 30ft 0kts
01-Oct-17 18:10 37.614001 -122.383537 117 30ft 0kts
01-Oct-17 18:11 37.614001 -122.383537 117 30ft 0kts
01-Oct-17 18:12 37.614001 -122.383537 117 30ft 0kts
01-Oct-17 18:13 37.614001 -122.383537 117 30ft 0kts
01-Oct-17 18:14 37.614001 -122.383537 117 30ft 0kts
01-Oct-17 18:15 37.613973 -122.383469 118 30ft 2kts
01-Oct-17 18:16 37.613081 -122.382055 184 30ft 16kts
01-Oct-17 18:17 37.610815 -122.382790 153 30ft 10kts
01-Oct-17 18:18 37.608539 -122.383829 154 30ft 0kts
01-Oct-17 18:19 37.608539 -122.383829 154 30ft 0kts
01-Oct-17 18:20 37.608539 -122.383829 154 30ft 0kts
01-Oct-17 18:21 37.608280 -122.383438 121 30ft 9kts
01-Oct-17 18:22 37.612368 -122.379976 25 30ft 88kts
01-Oct-17 18:23 37.634364 -122.361997 39 1067ft 152kts
01-Oct-17 18:24 37.668153 -122.344513 350 1603ft 229kts
01-Oct-17 18:25 37.705333 -122.374115 301 2201ft 213kts
01-Oct-17 18:26 37.694052 -122.422238 209 3290ft 243kts
01-Oct-17 18:27 37.649118 -122.431584 193 5046ft 248kts
01-Oct-17 18:28 37.598213 -122.444109 195 7365ft 255kts
01-Oct-17 18:29 37.534204 -122.461607 195 9910ft 266kts
01-Oct-17 18:30 37.470174 -122.443187 135 10769ft 276kts
01-Oct-17 18:31 37.428962 -122.379501 130 12914ft 285kts
01-Oct-17 18:32 37.389876 -122.318514 131 14718ft 296kts
01-Oct-17 18:33 37.348652 -122.254491 131 16465ft 305kts
01-Oct-17 18:34 37.303797 -122.184885 132 18204ft 315kts
01-Oct-17 18:35 37.262627 -122.121092 132 19680ft 322kts
01-Oct-17 18:36 37.221225 -122.057180 133 21072ft 329kts
01-Oct-17 18:37 37.175962 -121.987482 133 22429ft 336kts
01-Oct-17 18:38 37.125024 -121.909228 134 23775ft 344kts
01-Oct-17 18:39 37.076013 -121.834086 134 25116ft 346kts
01-Oct-17 18:40 37.030494 -121.764383 134 26272ft 349kts
01-Oct-17 18:41 36.980126 -121.687503 133 27421ft 352kts
01-Oct-17 18:42 36.926142 -121.605261 134 28595ft 354kts
01-Oct-17 18:43 36.870137 -121.520435 134 29561ft 361kts
01-Oct-17 18:44 36.810580 -121.430402 134 30597ft 365kts
01-Oct-17 18:45 36.751066 -121.340527 134 31563ft 368kts
01-Oct-17 18:46 36.691593 -121.250597 135 32451ft 371kts
01-Oct-17 18:47 36.632285 -121.161457 135 33209ft 374kts
01-Oct-17 18:48 36.571774 -121.070791 134 33948ft 377kts
01-Oct-17 18:49 36.514442 -120.985105 134 34548ft 381kts
01-Oct-17 18:50 36.455779 -120.898812 134 34935ft 389kts
01-Oct-17 18:51 36.391511 -120.803056 133 35005ft 404kts
01-Oct-17 18:52 36.321516 -120.698417 133 35006ft 419kts
01-Oct-17 18:53 36.248121 -120.589045 133 34971ft 434kts
01-Oct-17 18:54 36.172126 -120.476046 133 34987ft 446kts
01-Oct-17 18:55 36.096366 -120.363876 133 34986ft 446kts
01-Oct-17 18:56 36.022141 -120.253994 133 34971ft 446kts
01-Oct-17 18:57 35.949963 -120.147736 133 34971ft 446kts
01-Oct-17 18:58 35.887297 -120.055854 134 34948ft 446kts
01-Oct-17 18:59 35.811343 -119.947314 134 34967ft 445kts
01-Oct-17 19:00 35.738854 -119.845056 134 34967ft 445kts
01-Oct-17 19:01 35.662015 -119.736170 134 34967ft 445kts
01-Oct-17 19:02 35.589057 -119.632920 134 34967ft 445kts
01-Oct-17 19:03 35.516007 -119.529855 134 34967ft 445kts
01-Oct-17 19:04 35.446075 -119.431554 134 34967ft 445kts
01-Oct-17 19:05 35.376811 -119.334363 135 34918ft 435kts
01-Oct-17 19:06 35.302980 -119.230867 135 34973ft 439kts
01-Oct-17 19:07 35.227336 -119.125384 135 34966ft 438kts
01-Oct-17 19:08 35.154654 -119.024348 135 34967ft 438kts
01-Oct-17 19:09 35.081089 -118.922388 134 35035ft 441kts
01-Oct-17 19:10 35.010112 -118.824295 134 35190ft 443kts
01-Oct-17 19:11 34.937915 -118.724789 133 35240ft 444kts
01-Oct-17 19:12 34.883164 -118.649633 133 35213ft 443kts
01-Oct-17 19:13 34.810209 -118.549893 133 35238ft 443kts
01-Oct-17 19:14 34.734786 -118.446788 133 35155ft 443kts
01-Oct-17 19:15 34.662506 -118.348265 134 35054ft 444kts
01-Oct-17 19:16 34.591167 -118.251007 134 35020ft 444kts
01-Oct-17 19:17 34.524465 -118.160580 134 35018ft 444kts
01-Oct-17 19:18 34.455139 -118.066857 134 34992ft 444kts
01-Oct-17 19:19 34.403630 -117.951807 106 34991ft 453kts
01-Oct-17 19:20 34.375865 -117.829280 108 35017ft 451kts
01-Oct-17 19:21 34.347342 -117.710070 108 35013ft 454kts
01-Oct-17 19:22 34.314489 -117.573419 108 35011ft 453kts
01-Oct-17 19:23 34.287229 -117.460609 108 34990ft 450kts
01-Oct-17 19:24 34.260154 -117.349068 108 34977ft 454kts
01-Oct-17 19:25 34.230121 -117.225595 108 34968ft 453kts
01-Oct-17 19:26 34.197994 -117.094481 108 34969ft 453kts
01-Oct-17 19:27 34.165860 -116.964013 108 35061ft 455kts
01-Oct-17 19:28 34.132392 -116.828809 107 35044ft 456kts
01-Oct-17 19:29 34.097342 -116.687986 107 34923ft 457kts
01-Oct-17 19:30 34.061676 -116.545446 107 34860ft 458kts
01-Oct-17 19:31 34.025476 -116.401578 107 34860ft 457kts
01-Oct-17 19:32 33.990294 -116.262267 108 34878ft 457kts
01-Oct-17 19:33 33.954355 -116.120905 108 34861ft 457kts
01-Oct-17 19:34 33.918479 -115.980957 108 34924ft 458kts
01-Oct-17 19:35 33.882324 -115.841357 108 34826ft 461kts
01-Oct-17 19:36 33.845494 -115.699146 108 33816ft 458kts
01-Oct-17 19:37 33.808473 -115.556602 108 32860ft 459kts
01-Oct-17 19:38 33.771188 -115.413820 108 31901ft 460kts
01-Oct-17 19:39 33.734429 -115.273536 108 30916ft 459kts
01-Oct-17 19:40 33.697231 -115.132473 109 29946ft 447kts
01-Oct-17 19:41 33.662631 -115.001987 108 29050ft 394kts
01-Oct-17 19:42 33.631845 -114.886449 108 28197ft 383kts
01-Oct-17 19:43 33.601889 -114.774425 108 27386ft 384kts
01-Oct-17 19:44 33.576402 -114.659059 104 26500ft 357kts
01-Oct-17 19:45 33.555707 -114.552671 103 25789ft 310kts
01-Oct-17 19:46 33.536878 -114.455831 103 25307ft 314kts
01-Oct-17 19:47 33.515960 -114.348487 104 24951ft 372kts
01-Oct-17 19:48 33.495406 -114.243506 104 24853ft 412kts
01-Oct-17 19:49 33.468710 -114.108537 104 24856ft 437kts
01-Oct-17 19:50 33.440707 -113.970581 104 24375ft 435kts
01-Oct-17 19:51 33.415807 -113.846748 104 23738ft 402kts
01-Oct-17 19:52 33.390496 -113.720845 104 22827ft 396kts
01-Oct-17 19:53 33.365536 -113.597311 103 21924ft 390kts
01-Oct-17 19:54 33.342098 -113.482015 103 20938ft 345kts
01-Oct-17 19:55 33.326438 -113.396427 101 20845ft 327kts
01-Oct-17 19:56 33.308301 -113.291291 102 20862ft 363kts
01-Oct-17 19:57 33.287354 -113.158429 100 20418ft 350kts
01-Oct-17 19:58 33.274929 -113.069212 94 19303ft 337kts
01-Oct-17 19:59 33.277172 -112.964442 86 17849ft 328kts
01-Oct-17 20:00 33.279821 -112.862972 86 16466ft 323kts
01-Oct-17 20:01 33.286409 -112.762378 82 15037ft 314kts
01-Oct-17 20:02 33.295551 -112.666607 82 13634ft 303kts
01-Oct-17 20:03 33.304236 -112.574286 82 12245ft 301kts
01-Oct-17 20:04 33.312583 -112.484701 83 10970ft 289kts
01-Oct-17 20:05 33.320505 -112.399088 82 10876ft 296kts
01-Oct-17 20:06 33.327898 -112.316574 82 10907ft 269kts
01-Oct-17 20:07 33.334665 -112.241743 82 10348ft 246kts
01-Oct-17 20:08 33.340467 -112.178197 82 9664ft 247kts
01-Oct-17 20:09 33.346209 -112.114801 81 8918ft 243kts
01-Oct-17 20:10 33.347661 -112.048067 88 8860ft 245kts
01-Oct-17 20:11 33.346942 -111.992189 88 8303ft 245kts
01-Oct-17 20:12 33.346158 -111.935949 89 7402ft 245kts
01-Oct-17 20:13 33.344347 -111.882711 90 6390ft 236kts
01-Oct-17 20:14 33.342930 -111.830715 80 5401ft 233kts
01-Oct-17 20:15 33.371639 -111.802877 352 4412ft 220kts
01-Oct-17 20:16 33.409564 -111.819041 322 4201ft 225kts
01-Oct-17 20:17 33.433914 -111.850368 307 4202ft 207kts
01-Oct-17 20:18 33.441548 -111.891233 264 4216ft 178kts
01-Oct-17 20:19 33.440322 -111.925871 271 3256ft 191kts
01-Oct-17 20:20 33.440905 -111.956876 267 2476ft 159kts
01-Oct-17 20:21 33.440956 -111.984403 268 1461ft 151kts
01-Oct-17 20:22 33.440844 -112.007163 272 1129ft 105kts
01-Oct-17 20:23 33.439968 -112.013920 215 1125ft 4kts
01-Oct-17 20:24 33.438983 -112.013594 91 1125ft 13kts
01-Oct-17 20:25 33.439000 -112.010406 90 1126ft 22kts
01-Oct-17 20:26 33.438981 -112.005551 89 1129ft 30kts
01-Oct-17 20:27 33.438423 -112.000758 180 1129ft 19kts
01-Oct-17 20:28 33.437126 -111.999868 91 1129ft 0kts
01-Oct-17 20:29 33.437126 -111.999868 91 1129ft 0kts
01-Oct-17 20:30 33.437126 -111.999868 91 1129ft 0kts
01-Oct-17 20:31 33.437126 -111.999868 91 1129ft 0kts
01-Oct-17 20:32 33.437126 -111.999868 91 1129ft 0kts
01-Oct-17 20:33 33.437126 -111.999868 91 1129ft 0kts
01-Oct-17 20:34 33.437126 -111.999868 91 1129ft 0kts
01-Oct-17 20:35 33.437126 -111.999868 91 1129ft 0kts
01-Oct-17 20:36 33.437126 -111.999868 91 1129ft 0kts
01-Oct-17 20:37 33.437126 -111.999868 91 1129ft 0kts

Navigation Log

Ident Type
1. KSFO Airport
2. BOILE Fix
3. BLH Navaid
4. KPHX Airport